Time;durP1;ratioP1;P1;durP2;ratioP2;P2;SDS_P1;SDS_P2;PMS_P1;PMS_P2;Temp;Humidity;BMP_temperature;BMP_pressure;BME280_temperature;BME280_humidity;BME280_pressure;Samples;Min_cycle;Max_cycle;Signal;HPM_P1;HPM_P2
2024/01/29 00:00:00;;;;;;;4.38;2.50;;;;;;;;;;689531;28;1421;-67
2024/01/29 00:00:20;;;;;;;5.57;2.87;;;;;;;;;;689580;28;1062;-65
2024/01/29 00:00:40;;;;;;;5.60;2.87;;;;;;;;;;689649;28;2378;-66
2024/01/29 00:01:00;;;;;;;5.00;2.80;;;;;;;;;;687679;28;865;-67
2024/01/29 00:01:21;;;;;;;5.53;2.70;;;;;;;;;;687132;28;4514;-66
2024/01/29 00:01:41;;;;;;;5.23;2.60;;;;;;;;;;686689;28;1747;-65
2024/01/29 00:02:02;;;;;;;5.68;2.72;;;;;;;;;;687742;28;1758;-66
2024/01/29 00:02:22;;;;;;;5.77;2.70;;;;;;;;;;687937;28;924;-65
2024/01/29 00:02:44;;;;;;;5.45;2.90;;;;;;;;;;683557;28;1945;-65
2024/01/29 00:03:04;;;;;;;4.60;2.50;;;;;;;;;;684960;28;1339;-66
2024/01/29 00:03:24;;;;;;;4.18;2.50;;;;;;;;;;685402;28;1022;-66
2024/01/29 00:03:46;;;;;;;4.43;2.50;;;;;;;;;;684350;28;2014;-67
2024/01/29 00:04:06;;;;;;;4.93;2.63;;;;;;;;;;685266;28;1035;-70
2024/01/29 00:04:27;;;;;;;5.23;2.63;;;;;;;;;;685377;28;4285;-66
2024/01/29 00:04:48;;;;;;;5.10;2.70;;;;;;;;;;686545;28;2430;-67
2024/01/29 00:05:08;;;;;;;5.13;2.70;;;;;;;;;;685780;28;770;-66
2024/01/29 00:05:29;;;;;;;4.53;2.50;;;;;;;;;;687999;28;972;-67
2024/01/29 00:05:49;;;;;;;4.75;2.60;;;;;;;;;;686622;28;1246;-65
2024/01/29 00:06:10;;;;;;;5.77;2.93;;;;;;;;;;688279;28;1255;-66
2024/01/29 00:06:30;;;;;;;5.80;2.85;;;;;;;;;;687059;28;2099;-66
2024/01/29 00:06:51;;;;;;;5.60;3.22;;;;;;;;;;687764;28;876;-66
2024/01/29 00:07:12;;;;;;;5.40;2.78;;;;;;;;;;687017;28;4500;-65
2024/01/29 00:07:33;;;;;;;5.77;2.73;;;;;;;;;;687197;28;1492;-65
2024/01/29 00:07:54;;;;;;;4.40;2.67;;;;;;;;;;687833;28;1255;-65
2024/01/29 00:08:17;;;;;;;4.47;2.83;;;;;;;;;;688057;28;920;-67
2024/01/29 00:08:37;;;;;;;4.85;2.65;;;;;;;;;;686903;28;2303;-65
2024/01/29 00:08:58;;;;;;;4.90;2.87;;;;;;;;;;687348;28;1196;-64
2024/01/29 00:09:19;;;;;;;5.65;2.70;;;;;;;;;;687634;28;1261;-65
2024/01/29 00:09:41;;;;;;;5.43;2.75;;;;;;;;;;686122;28;1732;-64
2024/01/29 00:10:02;;;;;;;5.10;2.80;;;;;;;;;;687819;28;829;-66
2024/01/29 00:10:22;;;;;;;4.65;2.60;;;;;;;;;;686980;28;4325;-65
2024/01/29 00:10:43;;;;;;;5.50;2.90;;;;;;;;;;686821;28;1592;-64
2024/01/29 00:11:03;;;;;;;4.65;2.67;;;;;;;;;;686991;28;1180;-65
2024/01/29 00:11:24;;;;;;;4.67;2.50;;;;;;;;;;687780;28;1238;-64
2024/01/29 00:11:44;;;;;;;5.22;2.70;;;;;;;;;;687333;28;1694;-65
2024/01/29 00:12:05;;;;;;;4.93;2.80;;;;;;;;;;688032;28;944;-65
2024/01/29 00:12:25;;;;;;;4.50;2.70;;;;;;;;;;692296;28;1105;-65
2024/01/29 00:12:46;;;;;;;4.20;2.40;;;;;;;;;;688390;28;2350;-65
2024/01/29 00:13:06;;;;;;;4.73;2.60;;;;;;;;;;690454;28;1235;-65
2024/01/29 00:13:26;;;;;;;5.60;2.83;;;;;;;;;;689771;28;4307;-66
2024/01/29 00:13:46;;;;;;;6.03;2.90;;;;;;;;;;688853;28;1860;-67
2024/01/29 00:14:07;;;;;;;5.67;2.73;;;;;;;;;;690116;28;1439;-66
2024/01/29 00:14:27;;;;;;;5.30;2.57;;;;;;;;;;687927;28;805;-65
2024/01/29 00:14:47;;;;;;;5.70;2.67;;;;;;;;;;685967;28;1758;-66
2024/01/29 00:15:08;;;;;;;5.23;2.70;;;;;;;;;;686858;28;1398;-66
2024/01/29 00:15:28;;;;;;;5.43;2.60;;;;;;;;;;686757;28;822;-66
2024/01/29 00:15:49;;;;;;;4.83;2.90;;;;;;;;;;683183;28;1777;-66
2024/01/29 00:16:09;;;;;;;5.03;2.88;;;;;;;;;;684385;28;4574;-66
2024/01/29 00:16:29;;;;;;;4.70;2.60;;;;;;;;;;684618;28;1303;-65
2024/01/29 00:16:50;;;;;;;4.40;2.60;;;;;;;;;;686013;28;1675;-64
2024/01/29 00:17:10;;;;;;;4.25;2.60;;;;;;;;;;687151;28;834;-65
2024/01/29 00:17:30;;;;;;;4.93;2.70;;;;;;;;;;687351;28;1150;-66
2024/01/29 00:17:50;;;;;;;4.77;2.80;;;;;;;;;;688729;28;2299;-67
2024/01/29 00:18:10;;;;;;;5.20;2.67;;;;;;;;;;690105;28;1207;-66
2024/01/29 00:18:31;;;;;;;5.30;2.70;;;;;;;;;;688083;28;905;-66
2024/01/29 00:18:51;;;;;;;5.67;2.90;;;;;;;;;;689357;28;924;-67
2024/01/29 00:19:12;;;;;;;5.00;2.60;;;;;;;;;;686347;28;4534;-66
2024/01/29 00:19:32;;;;;;;4.67;2.60;;;;;;;;;;685442;28;2252;-66
2024/01/29 00:19:52;;;;;;;4.77;2.80;;;;;;;;;;686736;28;1310;-65
2024/01/29 00:20:12;;;;;;;4.88;2.72;;;;;;;;;;687840;28;805;-66
2024/01/29 00:20:33;;;;;;;5.03;2.60;;;;;;;;;;685731;28;1684;-66
2024/01/29 00:20:53;;;;;;;6.30;2.70;;;;;;;;;;687110;28;1391;-66
2024/01/29 00:21:13;;;;;;;5.53;2.80;;;;;;;;;;684533;28;913;-65
2024/01/29 00:21:34;;;;;;;6.33;2.90;;;;;;;;;;681848;28;1687;-65
2024/01/29 00:21:54;;;;;;;5.83;2.80;;;;;;;;;;684321;28;980;-65
2024/01/29 00:22:14;;;;;;;5.63;2.72;;;;;;;;;;685641;28;4560;-65
2024/01/29 00:22:34;;;;;;;5.53;2.67;;;;;;;;;;686072;28;1850;-65
2024/01/29 00:22:55;;;;;;;4.97;2.60;;;;;;;;;;687453;28;1217;-66
2024/01/29 00:23:16;;;;;;;5.22;2.50;;;;;;;;;;686701;28;751;-66
2024/01/29 00:23:36;;;;;;;4.45;2.50;;;;;;;;;;682429;28;2520;-65
2024/01/29 00:23:59;;;;;;;4.30;2.50;;;;;;;;;;684231;28;783;-65
2024/01/29 00:24:20;;;;;;;4.60;2.55;;;;;;;;;;684234;28;1482;-64
2024/01/29 00:24:40;;;;;;;5.70;2.50;;;;;;;;;;680005;28;2298;-66
2024/01/29 00:25:01;;;;;;;5.17;2.30;;;;;;;;;;682004;28;917;-65
2024/01/29 00:25:21;;;;;;;5.35;2.72;;;;;;;;;;684053;28;4407;-64
2024/01/29 00:25:41;;;;;;;5.43;3.07;;;;;;;;;;683176;28;1718;-66
2024/01/29 00:26:01;;;;;;;4.53;2.85;;;;;;;;;;685003;28;1518;-65
2024/01/29 00:26:22;;;;;;;5.23;2.63;;;;;;;;;;681413;28;1567;-67
2024/01/29 00:26:42;;;;;;;6.50;2.93;;;;;;;;;;681050;29;2300;-65
2024/01/29 00:27:02;;;;;;;4.55;2.78;;;;;;;;;;681433;29;902;-65
2024/01/29 00:27:23;;;;;;;4.40;2.57;;;;;;;;;;682494;29;1095;-65
2024/01/29 00:27:43;;;;;;;4.90;3.10;;;;;;;;;;680045;28;1845;-65
2024/01/29 00:28:03;;;;;;;5.15;2.90;;;;;;;;;;682200;28;869;-65
2024/01/29 00:28:24;;;;;;;5.10;2.77;;;;;;;;;;686831;28;4358;-65
2024/01/29 00:28:44;;;;;;;5.07;2.50;;;;;;;;;;686437;28;2475;-65
2024/01/29 00:29:05;;;;;;;4.63;2.70;;;;;;;;;;687601;28;1026;-67
2024/01/29 00:29:25;;;;;;;4.85;2.90;;;;;;;;;;686493;28;1683;-65
2024/01/29 00:29:45;;;;;;;5.60;2.63;;;;;;;;;;686532;28;1048;-63
2024/01/29 00:30:07;;;;;;;5.57;2.65;;;;;;;;;;689491;28;885;-65
2024/01/29 00:30:28;;;;;;;4.30;2.55;;;;;;;;;;690212;28;1045;-66
2024/01/29 00:30:48;;;;;;;4.43;2.40;;;;;;;;;;685409;28;2236;-64
2024/01/29 00:31:09;;;;;;;5.20;2.60;;;;;;;;;;686241;28;4483;-64
2024/01/29 00:31:29;;;;;;;4.83;2.60;;;;;;;;;;684883;28;945;-64
2024/01/29 00:31:50;;;;;;;5.07;2.75;;;;;;;;;;682544;28;1748;-64
2024/01/29 00:32:10;;;;;;;5.10;2.57;;;;;;;;;;684019;28;818;-65
2024/01/29 00:32:30;;;;;;;5.07;2.57;;;;;;;;;;684538;28;1208;-65
2024/01/29 00:32:50;;;;;;;5.57;2.58;;;;;;;;;;686421;28;1180;-65
2024/01/29 00:33:11;;;;;;;5.87;2.73;;;;;;;;;;687600;28;896;-64
2024/01/29 00:33:31;;;;;;;4.90;2.80;;;;;;;;;;687472;28;786;-64
2024/01/29 00:33:52;;;;;;;5.15;2.60;;;;;;;;;;686318;28;2409;-65
2024/01/29 00:34:12;;;;;;;4.68;2.60;;;;;;;;;;685486;28;4399;-64
2024/01/29 00:34:33;;;;;;;4.53;2.60;;;;;;;;;;685479;28;997;-65
2024/01/29 00:34:53;;;;;;;4.93;2.60;;;;;;;;;;687767;28;818;-65
2024/01/29 00:35:14;;;;;;;5.40;2.85;;;;;;;;;;687818;28;924;-65
2024/01/29 00:35:35;;;;;;;5.43;2.78;;;;;;;;;;686686;28;1841;-65
2024/01/29 00:35:55;;;;;;;5.28;2.63;;;;;;;;;;687382;28;1211;-65
2024/01/29 00:36:16;;;;;;;4.23;2.33;;;;;;;;;;686631;28;865;-64
2024/01/29 00:36:36;;;;;;;4.40;2.50;;;;;;;;;;686770;28;2318;-64
2024/01/29 00:36:56;;;;;;;5.10;2.50;;;;;;;;;;688083;28;941;-64
2024/01/29 00:37:16;;;;;;;5.20;2.70;;;;;;;;;;686702;28;4414;-64
2024/01/29 00:37:37;;;;;;;5.20;2.90;;;;;;;;;;685974;28;1848;-65
2024/01/29 00:37:57;;;;;;;4.43;2.60;;;;;;;;;;687265;28;968;-65
2024/01/29 00:38:17;;;;;;;5.00;2.70;;;;;;;;;;687157;28;766;-64
2024/01/29 00:38:37;;;;;;;4.13;2.60;;;;;;;;;;686301;28;911;-64
2024/01/29 00:38:58;;;;;;;4.30;2.50;;;;;;;;;;687308;28;1167;-65
2024/01/29 00:39:18;;;;;;;4.60;2.70;;;;;;;;;;684413;28;1910;-65
2024/01/29 00:39:39;;;;;;;4.75;2.85;;;;;;;;;;683915;28;1533;-64
2024/01/29 00:39:59;;;;;;;5.90;2.77;;;;;;;;;;686088;28;878;-64
2024/01/29 00:40:19;;;;;;;4.85;2.60;;;;;;;;;;685334;28;4375;-64
2024/01/29 00:40:40;;;;;;;4.57;2.50;;;;;;;;;;686028;28;1812;-65
2024/01/29 00:41:00;;;;;;;4.63;2.38;;;;;;;;;;686990;28;996;-65
2024/01/29 00:41:20;;;;;;;4.87;2.60;;;;;;;;;;687400;28;792;-64
2024/01/29 00:41:41;;;;;;;5.97;2.93;;;;;;;;;;686400;28;1941;-65
2024/01/29 00:42:01;;;;;;;4.83;2.70;;;;;;;;;;687903;28;933;-64
2024/01/29 00:42:21;;;;;;;4.93;2.43;;;;;;;;;;687174;28;1349;-66
2024/01/29 00:42:42;;;;;;;4.60;2.60;;;;;;;;;;685911;28;1742;-65
2024/01/29 00:43:02;;;;;;;4.53;2.70;;;;;;;;;;686251;28;1425;-66
2024/01/29 00:43:23;;;;;;;5.15;2.60;;;;;;;;;;686662;28;4516;-66
2024/01/29 00:43:43;;;;;;;5.30;2.93;;;;;;;;;;686361;28;2149;-65
2024/01/29 00:44:03;;;;;;;5.00;2.70;;;;;;;;;;687578;28;2196;-65
2024/01/29 00:44:24;;;;;;;5.50;2.63;;;;;;;;;;687307;28;778;-66
2024/01/29 00:44:44;;;;;;;4.90;2.60;;;;;;;;;;686115;28;951;-65
2024/01/29 00:45:05;;;;;;;5.00;2.70;;;;;;;;;;687943;28;877;-65
2024/01/29 00:45:25;;;;;;;5.73;2.67;;;;;;;;;;687636;28;1190;-65
2024/01/29 00:45:45;;;;;;;4.70;2.53;;;;;;;;;;685903;28;994;-65
2024/01/29 00:46:06;;;;;;;4.87;2.60;;;;;;;;;;687714;28;941;-66
2024/01/29 00:46:26;;;;;;;5.40;2.80;;;;;;;;;;683155;28;4987;-66
2024/01/29 00:46:47;;;;;;;5.37;2.70;;;;;;;;;;683125;28;1886;-65
2024/01/29 00:47:07;;;;;;;5.30;2.90;;;;;;;;;;684321;28;1307;-64
2024/01/29 00:47:27;;;;;;;5.13;2.70;;;;;;;;;;684980;28;877;-64
2024/01/29 00:47:48;;;;;;;4.80;2.63;;;;;;;;;;683285;28;1049;-65
2024/01/29 00:48:08;;;;;;;4.93;2.70;;;;;;;;;;685202;28;956;-65
2024/01/29 00:48:28;;;;;;;5.30;2.63;;;;;;;;;;684845;28;1228;-65
2024/01/29 00:48:48;;;;;;;5.40;2.90;;;;;;;;;;682733;28;2178;-66
2024/01/29 00:49:08;;;;;;;4.90;2.57;;;;;;;;;;684422;28;4716;-65
2024/01/29 00:49:32;;;;;;;4.33;2.53;;;;;;;;;;685026;28;917;-66
2024/01/29 00:49:52;;;;;;;5.70;2.92;;;;;;;;;;683258;28;2329;-64
2024/01/29 00:50:12;;;;;;;5.40;2.97;;;;;;;;;;684888;28;1348;-65
2024/01/29 00:50:33;;;;;;;4.87;2.70;;;;;;;;;;684039;28;3684;-65
2024/01/29 00:50:55;;;;;;;4.60;2.60;;;;;;;;;;683583;28;4539;-64
2024/01/29 00:51:16;;;;;;;4.40;2.58;;;;;;;;;;684310;28;1052;-65
2024/01/29 00:51:36;;;;;;;4.60;2.70;;;;;;;;;;684112;28;2495;-64
2024/01/29 00:51:57;;;;;;;5.23;2.83;;;;;;;;;;684395;28;1017;-64
2024/01/29 00:52:18;;;;;;;4.50;2.47;;;;;;;;;;685863;28;4502;-65
2024/01/29 00:52:39;;;;;;;4.97;2.67;;;;;;;;;;686408;28;1512;-66
2024/01/29 00:52:59;;;;;;;5.33;3.10;;;;;;;;;;687278;28;984;-64
2024/01/29 00:53:19;;;;;;;4.82;2.75;;;;;;;;;;687589;28;898;-65
2024/01/29 00:53:40;;;;;;;5.47;2.60;;;;;;;;;;686175;28;1920;-65
2024/01/29 00:54:00;;;;;;;4.60;2.60;;;;;;;;;;687092;28;980;-65
2024/01/29 00:54:22;;;;;;;5.43;2.80;;;;;;;;;;686937;28;909;-64
2024/01/29 00:54:42;;;;;;;6.03;3.00;;;;;;;;;;686116;28;1763;-65
2024/01/29 00:55:02;;;;;;;4.90;2.63;;;;;;;;;;686856;28;1334;-67
2024/01/29 00:55:23;;;;;;;5.03;2.47;;;;;;;;;;687538;28;4422;-64
2024/01/29 00:55:45;;;;;;;4.30;2.57;;;;;;;;;;689158;28;1034;-65
2024/01/29 00:56:05;;;;;;;5.28;2.97;;;;;;;;;;689864;28;1266;-65
2024/01/29 00:56:26;;;;;;;4.73;2.63;;;;;;;;;;690346;28;905;-65
2024/01/29 00:56:46;;;;;;;4.63;2.60;;;;;;;;;;688846;28;1236;-65
2024/01/29 00:57:06;;;;;;;4.93;2.70;;;;;;;;;;688596;28;1270;-65
2024/01/29 00:57:26;;;;;;;4.60;2.60;;;;;;;;;;690199;28;888;-66
2024/01/29 00:57:47;;;;;;;5.67;2.57;;;;;;;;;;686721;28;2421;-66
2024/01/29 00:58:07;;;;;;;5.57;2.50;;;;;;;;;;686782;28;1136;-66
2024/01/29 00:58:27;;;;;;;5.20;2.70;;;;;;;;;;686512;28;4406;-65
2024/01/29 00:58:47;;;;;;;5.27;2.63;;;;;;;;;;686261;28;1449;-65
2024/01/29 00:59:08;;;;;;;4.93;2.47;;;;;;;;;;687117;28;2021;-66
2024/01/29 00:59:28;;;;;;;4.85;2.55;;;;;;;;;;687303;28;988;-64
2024/01/29 00:59:48;;;;;;;4.90;2.43;;;;;;;;;;683604;28;1470;-64
2024/01/29 01:00:09;;;;;;;5.43;2.43;;;;;;;;;;687412;28;1373;-65
2024/01/29 01:00:29;;;;;;;5.68;2.70;;;;;;;;;;684489;28;1226;-65
2024/01/29 01:00:50;;;;;;;5.07;2.60;;;;;;;;;;683706;28;1114;-65
2024/01/29 01:01:11;;;;;;;4.47;2.60;;;;;;;;;;682916;28;4423;-65
2024/01/29 01:01:31;;;;;;;4.50;2.55;;;;;;;;;;684514;28;1318;-65
2024/01/29 01:01:51;;;;;;;4.13;2.50;;;;;;;;;;686133;28;1775;-65
2024/01/29 01:02:11;;;;;;;4.35;2.55;;;;;;;;;;686681;28;1408;-65
2024/01/29 01:02:32;;;;;;;5.20;2.70;;;;;;;;;;689450;28;750;-64
2024/01/29 01:02:52;;;;;;;5.78;2.60;;;;;;;;;;689039;28;2347;-62
2024/01/29 01:03:13;;;;;;;5.87;2.67;;;;;;;;;;690003;28;1255;-64
2024/01/29 01:03:33;;;;;;;5.07;2.70;;;;;;;;;;689882;28;783;-64
2024/01/29 01:03:53;;;;;;;4.38;2.50;;;;;;;;;;688606;28;2125;-64
2024/01/29 01:04:17;;;;;;;4.70;2.50;;;;;;;;;;686703;28;4416;-64
2024/01/29 01:04:37;;;;;;;4.35;2.30;;;;;;;;;;686152;28;907;-63
2024/01/29 01:04:58;;;;;;;4.43;2.50;;;;;;;;;;684858;28;1270;-64
2024/01/29 01:05:20;;;;;;;5.00;2.70;;;;;;;;;;684204;28;1074;-65
2024/01/29 01:05:40;;;;;;;5.18;2.70;;;;;;;;;;682982;28;2495;-63
2024/01/29 01:06:00;;;;;;;4.30;2.60;;;;;;;;;;685502;28;945;-65
2024/01/29 01:06:21;;;;;;;4.27;2.57;;;;;;;;;;687006;28;1220;-64
2024/01/29 01:06:41;;;;;;;4.77;2.67;;;;;;;;;;683606;28;1738;-64
2024/01/29 01:07:01;;;;;;;4.93;2.53;;;;;;;;;;687435;28;1028;-65
2024/01/29 01:07:22;;;;;;;4.75;2.50;;;;;;;;;;686911;28;5278;-66
2024/01/29 01:07:42;;;;;;;5.23;2.70;;;;;;;;;;685865;28;1780;-63
2024/01/29 01:08:03;;;;;;;5.77;2.80;;;;;;;;;;687365;28;1207;-64
2024/01/29 01:08:23;;;;;;;6.10;2.72;;;;;;;;;;687642;28;956;-64
2024/01/29 01:08:44;;;;;;;5.07;2.80;;;;;;;;;;685841;28;1745;-64
2024/01/29 01:09:04;;;;;;;5.00;2.70;;;;;;;;;;686987;28;849;-65
2024/01/29 01:09:24;;;;;;;4.57;2.50;;;;;;;;;;687367;28;813;-65
2024/01/29 01:09:45;;;;;;;4.33;2.60;;;;;;;;;;685735;28;1852;-64
2024/01/29 01:10:05;;;;;;;4.43;2.57;;;;;;;;;;687636;28;1105;-65
2024/01/29 01:10:26;;;;;;;4.60;2.60;;;;;;;;;;685024;28;4457;-65
2024/01/29 01:10:46;;;;;;;4.40;2.40;;;;;;;;;;683418;28;1898;-65
2024/01/29 01:11:07;;;;;;;4.78;2.40;;;;;;;;;;684326;28;1211;-65
2024/01/29 01:11:27;;;;;;;4.25;2.50;;;;;;;;;;685017;28;988;-65
2024/01/29 01:11:47;;;;;;;4.97;2.67;;;;;;;;;;682995;28;1907;-66
2024/01/29 01:12:08;;;;;;;5.60;2.73;;;;;;;;;;684538;28;1004;-64
2024/01/29 01:12:28;;;;;;;4.65;2.60;;;;;;;;;;684948;28;746;-65
2024/01/29 01:12:48;;;;;;;5.13;2.70;;;;;;;;;;683718;28;1862;-65
2024/01/29 01:13:08;;;;;;;6.20;2.87;;;;;;;;;;684605;28;4287;-66
2024/01/29 01:13:29;;;;;;;4.95;2.33;;;;;;;;;;687656;28;886;-65
2024/01/29 01:13:49;;;;;;;4.83;2.60;;;;;;;;;;685429;28;1663;-64
2024/01/29 01:14:09;;;;;;;5.05;2.67;;;;;;;;;;686962;28;882;-65
2024/01/29 01:14:30;;;;;;;5.40;2.63;;;;;;;;;;687161;28;1294;-64
2024/01/29 01:14:50;;;;;;;5.13;2.60;;;;;;;;;;686724;28;2444;-65
2024/01/29 01:15:10;;;;;;;5.17;2.70;;;;;;;;;;687438;28;917;-66
2024/01/29 01:15:30;;;;;;;4.60;2.50;;;;;;;;;;687613;28;1268;-65
2024/01/29 01:15:51;;;;;;;5.07;2.60;;;;;;;;;;685847;28;1170;-65
2024/01/29 01:16:11;;;;;;;4.83;2.60;;;;;;;;;;686829;28;4519;-64
2024/01/29 01:16:31;;;;;;;5.35;2.60;;;;;;;;;;687485;28;795;-67
2024/01/29 01:16:51;;;;;;;4.90;2.50;;;;;;;;;;686764;28;1758;-65
2024/01/29 01:17:12;;;;;;;4.90;2.50;;;;;;;;;;687105;28;1058;-64
2024/01/29 01:17:32;;;;;;;6.15;2.65;;;;;;;;;;687298;28;1235;-66
2024/01/29 01:17:53;;;;;;;7.03;2.70;;;;;;;;;;685971;28;1196;-65
2024/01/29 01:18:13;;;;;;;5.95;2.60;;;;;;;;;;687309;28;821;-62
2024/01/29 01:18:33;;;;;;;5.17;2.70;;;;;;;;;;687594;28;1015;-63
2024/01/29 01:18:54;;;;;;;5.77;2.77;;;;;;;;;;686393;28;1055;-62
2024/01/29 01:19:14;;;;;;;5.18;2.80;;;;;;;;;;685774;28;4569;-64
2024/01/29 01:19:35;;;;;;;5.38;2.72;;;;;;;;;;687294;28;979;-64
2024/01/29 01:19:55;;;;;;;5.07;2.77;;;;;;;;;;686524;28;1745;-65
2024/01/29 01:20:15;;;;;;;5.40;2.70;;;;;;;;;;687564;28;730;-64
2024/01/29 01:20:35;;;;;;;4.78;2.50;;;;;;;;;;687273;28;901;-65
2024/01/29 01:20:56;;;;;;;5.30;2.60;;;;;;;;;;686098;28;2694;-65
2024/01/29 01:21:16;;;;;;;4.57;2.40;;;;;;;;;;686421;28;760;-64
2024/01/29 01:21:36;;;;;;;5.30;2.73;;;;;;;;;;687103;28;1181;-66
2024/01/29 01:21:56;;;;;;;4.97;2.63;;;;;;;;;;685913;28;1674;-66
2024/01/29 01:22:17;;;;;;;4.90;2.60;;;;;;;;;;681579;28;4639;-65
2024/01/29 01:22:37;;;;;;;4.07;2.40;;;;;;;;;;683349;28;1943;-66
2024/01/29 01:22:57;;;;;;;4.28;2.40;;;;;;;;;;683697;28;1151;-65
2024/01/29 01:23:18;;;;;;;4.97;2.60;;;;;;;;;;684250;28;1035;-65
2024/01/29 01:23:38;;;;;;;4.72;2.60;;;;;;;;;;683436;28;1809;-66
2024/01/29 01:23:58;;;;;;;4.40;2.43;;;;;;;;;;684827;28;940;-68
2024/01/29 01:24:19;;;;;;;4.77;2.57;;;;;;;;;;684713;28;949;-65
2024/01/29 01:24:39;;;;;;;4.53;2.60;;;;;;;;;;683103;28;2543;-65
2024/01/29 01:24:59;;;;;;;4.50;2.43;;;;;;;;;;684533;28;1433;-65
2024/01/29 01:25:19;;;;;;;5.00;2.67;;;;;;;;;;684128;28;4283;-65
2024/01/29 01:25:40;;;;;;;5.25;2.67;;;;;;;;;;683469;28;2332;-65
2024/01/29 01:26:00;;;;;;;5.20;2.80;;;;;;;;;;684472;28;1306;-65
2024/01/29 01:26:20;;;;;;;5.50;2.97;;;;;;;;;;684004;28;1065;-65
2024/01/29 01:26:40;;;;;;;5.55;2.70;;;;;;;;;;680804;28;963;-65
2024/01/29 01:27:02;;;;;;;5.23;2.63;;;;;;;;;;681694;29;1468;-65
2024/01/29 01:27:22;;;;;;;4.40;2.47;;;;;;;;;;681969;29;818;-65
2024/01/29 01:27:42;;;;;;;4.00;2.47;;;;;;;;;;679925;29;2297;-66
2024/01/29 01:28:03;;;;;;;5.30;2.70;;;;;;;;;;680797;28;1193;-65
2024/01/29 01:28:23;;;;;;;5.93;3.00;;;;;;;;;;683569;28;4703;-64
2024/01/29 01:28:43;;;;;;;5.03;2.80;;;;;;;;;;680706;28;1217;-64
2024/01/29 01:29:04;;;;;;;4.17;2.53;;;;;;;;;;684342;28;996;-64
2024/01/29 01:29:24;;;;;;;5.53;2.88;;;;;;;;;;684125;28;1046;-65
2024/01/29 01:29:44;;;;;;;5.23;2.83;;;;;;;;;;682511;28;1291;-64
2024/01/29 01:30:06;;;;;;;4.83;2.70;;;;;;;;;;681797;29;1319;-65
2024/01/29 01:30:26;;;;;;;4.68;2.63;;;;;;;;;;681639;28;1519;-64
2024/01/29 01:30:46;;;;;;;5.20;2.67;;;;;;;;;;680683;28;2577;-64
2024/01/29 01:31:06;;;;;;;5.83;2.87;;;;;;;;;;681554;29;917;-64
2024/01/29 01:31:26;;;;;;;5.13;2.70;;;;;;;;;;681516;28;4493;-65
2024/01/29 01:31:47;;;;;;;4.17;2.70;;;;;;;;;;676568;29;2349;-66
2024/01/29 01:32:07;;;;;;;4.47;2.80;;;;;;;;;;682214;29;901;-66
2024/01/29 01:32:27;;;;;;;5.33;2.70;;;;;;;;;;681354;28;1293;-65
2024/01/29 01:32:48;;;;;;;4.80;2.67;;;;;;;;;;682975;28;1724;-65
2024/01/29 01:33:09;;;;;;;5.00;2.60;;;;;;;;;;683722;28;1360;-64
2024/01/29 01:33:29;;;;;;;4.67;2.50;;;;;;;;;;684647;28;960;-65
2024/01/29 01:33:49;;;;;;;5.60;2.50;;;;;;;;;;683702;28;901;-65
2024/01/29 01:34:09;;;;;;;4.73;2.50;;;;;;;;;;684271;28;4422;-68
2024/01/29 01:34:30;;;;;;;4.93;2.50;;;;;;;;;;686956;28;1222;-66
2024/01/29 01:34:50;;;;;;;5.00;2.50;;;;;;;;;;689762;28;1237;-66
2024/01/29 01:35:10;;;;;;;5.23;2.90;;;;;;;;;;692662;28;955;-65
2024/01/29 01:35:31;;;;;;;5.93;2.80;;;;;;;;;;690177;28;1193;-67
2024/01/29 01:35:51;;;;;;;5.15;2.55;;;;;;;;;;685795;28;1485;-65
2024/01/29 01:36:11;;;;;;;4.77;2.90;;;;;;;;;;684341;28;1224;-65
2024/01/29 01:36:31;;;;;;;4.90;2.87;;;;;;;;;;684150;28;918;-66
2024/01/29 01:36:52;;;;;;;5.38;2.60;;;;;;;;;;680746;28;1067;-64
2024/01/29 01:37:12;;;;;;;4.33;2.67;;;;;;;;;;680229;28;4539;-66
2024/01/29 01:37:32;;;;;;;4.63;2.60;;;;;;;;;;684131;28;1241;-65
2024/01/29 01:37:53;;;;;;;4.82;2.42;;;;;;;;;;686116;28;1366;-66
2024/01/29 01:38:13;;;;;;;4.87;2.60;;;;;;;;;;689745;28;814;-65
2024/01/29 01:38:33;;;;;;;4.83;2.60;;;;;;;;;;690039;28;912;-67
2024/01/29 01:38:54;;;;;;;4.93;2.70;;;;;;;;;;688580;28;956;-65
2024/01/29 01:39:14;;;;;;;4.93;2.70;;;;;;;;;;689291;28;1914;-65
2024/01/29 01:39:34;;;;;;;5.10;2.80;;;;;;;;;;687539;28;1575;-65
2024/01/29 01:39:54;;;;;;;4.88;2.70;;;;;;;;;;686581;28;978;-65
2024/01/29 01:40:15;;;;;;;5.17;2.80;;;;;;;;;;686612;28;4421;-66
2024/01/29 01:40:35;;;;;;;4.90;2.80;;;;;;;;;;687279;28;1328;-65
2024/01/29 01:40:55;;;;;;;4.22;2.70;;;;;;;;;;685021;28;1061;-65
2024/01/29 01:41:16;;;;;;;5.13;2.60;;;;;;;;;;686620;28;860;-66
2024/01/29 01:41:36;;;;;;;4.80;2.53;;;;;;;;;;684656;28;1373;-65
2024/01/29 01:41:56;;;;;;;4.90;2.55;;;;;;;;;;683301;28;1166;-66
2024/01/29 01:42:16;;;;;;;4.90;2.63;;;;;;;;;;684841;28;811;-64
2024/01/29 01:42:41;;;;;;;4.63;2.57;;;;;;;;;;687393;28;893;-68
2024/01/29 01:43:13;;;;;;;4.15;2.45;;;;;;;;;;686323;28;1074;-67
2024/01/29 01:43:33;;;;;;;5.28;2.78;;;;;;;;;;685980;28;4877;-66
2024/01/29 01:43:53;;;;;;;4.83;2.73;;;;;;;;;;686508;28;1152;-64
2024/01/29 01:44:14;;;;;;;4.68;2.70;;;;;;;;;;687408;28;925;-63
2024/01/29 01:44:34;;;;;;;4.60;2.60;;;;;;;;;;687262;28;913;-64
2024/01/29 01:44:54;;;;;;;4.80;2.55;;;;;;;;;;686403;28;1119;-64
2024/01/29 01:45:15;;;;;;;6.23;2.70;;;;;;;;;;687163;28;1291;-65
2024/01/29 01:45:35;;;;;;;6.50;2.77;;;;;;;;;;686314;28;917;-64
2024/01/29 01:46:01;;;;;;;5.00;2.60;;;;;;;;;;686680;28;1102;-65
2024/01/29 01:46:22;;;;;;;5.57;2.65;;;;;;;;;;687241;28;4511;-64
2024/01/29 01:46:43;;;;;;;4.45;2.80;;;;;;;;;;684565;28;3521;-66
2024/01/29 01:47:03;;;;;;;4.22;2.58;;;;;;;;;;686485;28;1205;-67
2024/01/29 01:47:24;;;;;;;5.03;2.87;;;;;;;;;;687590;28;909;-66
2024/01/29 01:47:44;;;;;;;5.15;2.55;;;;;;;;;;686272;28;914;-66
2024/01/29 01:48:05;;;;;;;4.53;2.40;;;;;;;;;;687400;28;1309;-66
2024/01/29 01:48:25;;;;;;;4.93;2.60;;;;;;;;;;687016;28;1362;-65
2024/01/29 01:48:46;;;;;;;5.22;2.80;;;;;;;;;;685346;28;1631;-65
2024/01/29 01:49:06;;;;;;;5.10;2.77;;;;;;;;;;687495;28;714;-65
2024/01/29 01:49:27;;;;;;;4.13;2.47;;;;;;;;;;684175;28;4566;-65
2024/01/29 01:49:47;;;;;;;4.32;2.60;;;;;;;;;;683006;28;1710;-66
2024/01/29 01:50:08;;;;;;;4.57;2.55;;;;;;;;;;687663;28;1015;-66
2024/01/29 01:50:29;;;;;;;4.68;2.70;;;;;;;;;;687474;28;1252;-65
2024/01/29 01:50:49;;;;;;;5.13;2.97;;;;;;;;;;686164;28;1746;-65
2024/01/29 01:51:10;;;;;;;5.20;2.70;;;;;;;;;;686551;28;917;-66
2024/01/29 01:51:30;;;;;;;4.70;2.67;;;;;;;;;;687247;28;1313;-67
2024/01/29 01:51:50;;;;;;;5.93;3.20;;;;;;;;;;685987;28;1763;-66
2024/01/29 01:52:11;;;;;;;5.67;2.70;;;;;;;;;;687188;28;4517;-64
2024/01/29 01:52:31;;;;;;;5.40;2.80;;;;;;;;;;686463;28;932;-65
2024/01/29 01:52:52;;;;;;;6.07;2.95;;;;;;;;;;686184;28;2276;-65
2024/01/29 01:53:12;;;;;;;5.18;2.80;;;;;;;;;;687191;28;1293;-65
2024/01/29 01:53:34;;;;;;;4.80;2.90;;;;;;;;;;687677;28;924;-67
2024/01/29 01:53:55;;;;;;;4.68;2.80;;;;;;;;;;685743;28;1774;-64
2024/01/29 01:54:15;;;;;;;4.75;2.50;;;;;;;;;;687764;28;814;-65
2024/01/29 01:54:36;;;;;;;5.10;2.40;;;;;;;;;;687568;28;1286;-65
2024/01/29 01:54:57;;;;;;;4.70;2.53;;;;;;;;;;686089;28;1964;-65
2024/01/29 01:55:17;;;;;;;4.70;2.63;;;;;;;;;;685444;28;4418;-66
2024/01/29 01:55:37;;;;;;;4.97;2.70;;;;;;;;;;686704;28;1056;-65
2024/01/29 01:56:00;;;;;;;5.22;2.70;;;;;;;;;;686122;28;1007;-66
2024/01/29 01:56:21;;;;;;;4.65;2.58;;;;;;;;;;684026;28;1503;-65
2024/01/29 01:56:42;;;;;;;4.77;2.70;;;;;;;;;;683215;28;2299;-66
2024/01/29 01:57:02;;;;;;;4.72;2.60;;;;;;;;;;685091;28;925;-65
2024/01/29 01:57:23;;;;;;;4.97;2.58;;;;;;;;;;687223;28;940;-66
2024/01/29 01:57:43;;;;;;;4.90;2.50;;;;;;;;;;680358;28;1802;-67
2024/01/29 01:58:05;;;;;;;5.13;2.70;;;;;;;;;;681275;28;1336;-66
2024/01/29 01:58:26;;;;;;;4.70;2.50;;;;;;;;;;684378;28;4328;-66
2024/01/29 01:58:47;;;;;;;4.45;2.58;;;;;;;;;;683690;28;1709;-65
2024/01/29 01:59:07;;;;;;;4.50;2.60;;;;;;;;;;683520;28;1930;-66
2024/01/29 01:59:29;;;;;;;4.17;2.47;;;;;;;;;;684526;28;1304;-65
2024/01/29 01:59:49;;;;;;;5.13;2.70;;;;;;;;;;685222;28;1765;-66
2024/01/29 02:00:11;;;;;;;5.17;2.60;;;;;;;;;;687206;28;901;-66
2024/01/29 02:00:32;;;;;;;5.05;2.67;;;;;;;;;;687386;28;1264;-65
2024/01/29 02:00:55;;;;;;;4.95;2.58;;;;;;;;;;683210;28;1693;-66
2024/01/29 02:01:15;;;;;;;4.40;2.47;;;;;;;;;;679042;28;4539;-67
2024/01/29 02:01:35;;;;;;;4.93;2.80;;;;;;;;;;680626;28;1159;-68
2024/01/29 02:01:56;;;;;;;5.37;2.67;;;;;;;;;;683406;28;1711;-66
2024/01/29 02:02:17;;;;;;;4.85;2.63;;;;;;;;;;681521;28;973;-66
2024/01/29 02:02:38;;;;;;;5.32;2.72;;;;;;;;;;681933;28;1350;-67
2024/01/29 02:02:58;;;;;;;5.03;2.70;;;;;;;;;;686646;28;1168;-67
2024/01/29 02:03:18;;;;;;;5.50;2.70;;;;;;;;;;689923;28;929;-66
2024/01/29 02:03:40;;;;;;;5.20;2.80;;;;;;;;;;689173;28;830;-66
2024/01/29 02:04:00;;;;;;;5.18;2.60;;;;;;;;;;686399;28;1206;-65
2024/01/29 02:04:20;;;;;;;4.07;2.40;;;;;;;;;;686910;28;4284;-66
2024/01/29 02:04:41;;;;;;;4.27;2.70;;;;;;;;;;686125;28;2571;-66
2024/01/29 02:05:02;;;;;;;5.00;2.95;;;;;;;;;;687365;28;751;-65
2024/01/29 02:05:22;;;;;;;4.17;2.63;;;;;;;;;;687245;28;842;-65
2024/01/29 02:05:42;;;;;;;4.45;2.55;;;;;;;;;;686065;28;1821;-65
2024/01/29 02:06:03;;;;;;;4.87;2.70;;;;;;;;;;686777;28;1211;-66
2024/01/29 02:06:23;;;;;;;4.82;2.90;;;;;;;;;;686156;28;1467;-65
2024/01/29 02:06:44;;;;;;;5.37;2.90;;;;;;;;;;685543;28;942;-67
2024/01/29 02:07:04;;;;;;;5.07;2.55;;;;;;;;;;687349;28;1402;-64
2024/01/29 02:07:25;;;;;;;5.10;2.60;;;;;;;;;;687049;28;4313;-65